createdAt,value
2022-11-22T00:00:54.021Z,5.63
2022-11-22T00:03:23.392Z,2.63
2022-11-22T00:05:51.291Z,9.10
2022-11-22T00:08:19.272Z,7.60
2022-11-22T00:10:49.299Z,7.27
2022-11-22T00:13:17.487Z,8.60
2022-11-22T00:15:45.685Z,3.57
2022-11-22T00:18:13.647Z,6.53
2022-11-22T00:20:42.855Z,3.80
2022-11-22T00:23:10.808Z,5.67
2022-11-22T00:25:38.817Z,5.17
2022-11-22T00:28:06.761Z,5.57
2022-11-22T00:30:34.596Z,5.33
2022-11-22T00:33:02.575Z,4.47
2022-11-22T00:35:30.579Z,6.37
2022-11-22T00:37:59.856Z,4.87
2022-11-22T00:40:27.779Z,6.37
2022-11-22T00:42:55.664Z,4.53
2022-11-22T00:45:23.626Z,4.00
2022-11-22T00:47:52.014Z,5.90
2022-11-22T00:50:20.144Z,5.50
2022-11-22T00:52:48.059Z,7.40
2022-11-22T00:55:17.715Z,6.23
2022-11-22T00:57:45.635Z,6.93
2022-11-22T01:00:14.509Z,5.50
2022-11-22T01:02:42.427Z,5.37
2022-11-22T01:05:10.677Z,5.27
2022-11-22T01:07:38.675Z,7.90
2022-11-22T01:10:07.923Z,5.57
2022-11-22T01:12:37.732Z,4.97
2022-11-22T01:15:06.773Z,8.07
2022-11-22T01:17:34.779Z,6.33
2022-11-22T01:20:02.720Z,5.57
2022-11-22T01:22:31.011Z,7.97
2022-11-22T01:24:59.000Z,3.67
2022-11-22T01:27:26.985Z,4.90
2022-11-22T01:29:56.487Z,5.53
2022-11-22T01:32:24.461Z,5.73
2022-11-22T01:34:52.562Z,5.17
2022-11-22T01:37:20.704Z,5.97
2022-11-22T01:39:48.668Z,3.87
2022-11-22T01:42:16.774Z,4.33
2022-11-22T01:44:45.069Z,5.10
2022-11-22T01:47:16.489Z,7.07
2022-11-22T01:49:49.575Z,6.10
2022-11-22T01:52:19.936Z,3.67
2022-11-22T01:54:53.520Z,6.27
2022-11-22T01:57:25.333Z,4.33
2022-11-22T01:59:57.625Z,12.83
2022-11-22T02:02:27.379Z,5.13
2022-11-22T02:04:59.868Z,4.77
2022-11-22T02:07:34.270Z,9.53
2022-11-22T02:10:02.287Z,7.17
2022-11-22T02:12:32.926Z,4.23
2022-11-22T02:15:00.994Z,5.57
2022-11-22T02:17:30.930Z,6.17
2022-11-22T02:19:58.879Z,3.70
2022-11-22T02:22:34.734Z,8.27
2022-11-22T02:25:10.110Z,6.47
2022-11-22T02:27:40.107Z,6.30
2022-11-22T02:30:09.101Z,7.47
2022-11-22T02:32:37.113Z,5.00
2022-11-22T02:35:18.744Z,7.80
2022-11-22T02:37:48.442Z,8.43
2022-11-22T02:40:18.914Z,6.63
2022-11-22T02:42:51.808Z,3.90
2022-11-22T02:45:20.021Z,7.00
2022-11-22T02:47:48.138Z,5.53
2022-11-22T02:50:16.218Z,5.60
2022-11-22T02:52:44.364Z,6.60
2022-11-22T02:55:12.476Z,6.30
2022-11-22T02:57:40.574Z,5.63
2022-11-22T03:00:11.772Z,6.97
2022-11-22T03:02:39.795Z,8.67
2022-11-22T03:05:08.098Z,8.00
2022-11-22T03:07:36.391Z,4.77
2022-11-22T03:10:04.886Z,5.47
2022-11-22T03:12:32.951Z,5.57
2022-11-22T03:15:07.376Z,8.37
2022-11-22T03:17:37.032Z,5.17
2022-11-22T03:20:05.953Z,5.37
2022-11-22T03:22:34.595Z,5.70
2022-11-22T03:25:02.830Z,8.70
2022-11-22T03:27:30.958Z,9.10
2022-11-22T03:29:58.993Z,8.03
2022-11-22T03:32:26.954Z,4.00
2022-11-22T03:34:56.508Z,3.57
2022-11-22T03:37:24.556Z,7.13
2022-11-22T03:39:52.707Z,8.87
2022-11-22T03:42:22.133Z,4.97
2022-11-22T03:44:50.392Z,5.57
2022-11-22T03:47:18.535Z,4.77
2022-11-22T03:49:46.583Z,7.07
2022-11-22T03:52:16.156Z,7.47
2022-11-22T03:54:44.218Z,4.43
2022-11-22T03:57:12.227Z,6.53
2022-11-22T03:59:40.455Z,5.90
2022-11-22T04:02:08.740Z,7.23
2022-11-22T04:04:36.925Z,6.67
2022-11-22T04:07:05.039Z,7.03
2022-11-22T04:09:34.897Z,5.60
2022-11-22T04:12:03.100Z,11.17
2022-11-22T04:14:48.773Z,11.83
2022-11-22T04:17:37.549Z,8.87
2022-11-22T04:20:20.219Z,8.63
2022-11-22T04:22:56.464Z,7.63
2022-11-22T04:25:26.193Z,7.00
2022-11-22T04:27:55.676Z,8.27
2022-11-22T04:30:45.599Z,6.67
2022-11-22T04:33:13.227Z,10.50
2022-11-22T04:35:42.152Z,7.53
2022-11-22T04:38:10.684Z,5.77
2022-11-22T04:40:40.765Z,10.87
2022-11-22T04:43:26.429Z,7.57
2022-11-22T04:45:54.383Z,9.00
2022-11-22T04:48:22.397Z,7.83
2022-11-22T04:51:07.625Z,7.10
2022-11-22T04:53:35.619Z,7.17
2022-11-22T04:56:05.413Z,6.93
2022-11-22T04:58:33.379Z,6.90
2022-11-22T05:01:01.455Z,11.23
2022-11-22T05:03:29.554Z,7.93
2022-11-22T05:05:57.535Z,5.20
2022-11-22T05:08:25.440Z,9.53
2022-11-22T05:10:59.633Z,9.93
2022-11-22T05:13:31.591Z,10.47
2022-11-22T05:16:00.532Z,7.77
2022-11-22T05:18:29.333Z,8.50
2022-11-22T05:20:57.231Z,11.90
2022-11-22T05:23:43.037Z,13.53
2022-11-22T05:26:11.979Z,10.33
2022-11-22T05:28:41.276Z,8.73
2022-11-22T05:31:10.897Z,7.03
2022-11-22T05:33:40.386Z,9.60
2022-11-22T05:36:08.964Z,7.23
2022-11-22T05:38:38.475Z,8.23
2022-11-22T05:41:08.349Z,8.03
2022-11-22T05:43:36.738Z,8.70
2022-11-22T05:46:11.190Z,10.23
2022-11-22T05:48:41.536Z,8.00
2022-11-22T05:51:11.539Z,10.57
2022-11-22T05:53:40.184Z,10.23
2022-11-22T05:56:08.990Z,9.87
2022-11-22T05:58:37.487Z,10.13
2022-11-22T06:01:07.467Z,13.43
2022-11-22T06:03:37.520Z,10.43
2022-11-22T06:06:07.041Z,9.43
2022-11-22T06:08:36.757Z,9.30
2022-11-22T06:11:09.572Z,12.97
2022-11-22T06:13:38.545Z,12.30
2022-11-22T06:16:07.861Z,6.23
2022-11-22T06:18:37.299Z,10.43
2022-11-22T06:21:07.931Z,13.97
2022-11-22T06:23:36.218Z,11.57
2022-11-22T06:26:06.617Z,11.53
2022-11-22T06:28:36.695Z,9.10
2022-11-22T06:31:05.998Z,7.83
2022-11-22T06:33:34.281Z,10.87
2022-11-22T06:36:08.647Z,8.23
2022-11-22T06:38:37.208Z,15.03
2022-11-22T06:41:06.845Z,9.97
2022-11-22T06:43:35.986Z,9.73
2022-11-22T06:46:06.614Z,8.43
2022-11-22T06:48:36.274Z,8.87
2022-11-22T06:51:07.354Z,6.67
2022-11-22T06:53:47.501Z,9.53
2022-11-22T06:56:17.672Z,6.57
2022-11-22T06:58:46.500Z,9.40
2022-11-22T07:01:16.597Z,8.57
2022-11-22T07:03:45.666Z,8.80
2022-11-22T07:06:16.265Z,12.00
2022-11-22T07:08:44.728Z,9.30
2022-11-22T07:11:14.495Z,8.70
2022-11-22T07:13:42.547Z,11.63
2022-11-22T07:16:12.995Z,8.17
2022-11-22T07:18:41.387Z,13.43
2022-11-22T07:21:13.433Z,7.67
2022-11-22T07:23:44.517Z,8.47
2022-11-22T07:26:13.475Z,8.53
2022-11-22T07:28:42.177Z,11.50
2022-11-22T07:31:12.008Z,10.03
2022-11-22T07:33:40.619Z,15.33
2022-11-22T07:36:10.805Z,9.93
2022-11-22T07:38:39.157Z,12.77
2022-11-22T07:41:09.294Z,9.00
2022-11-22T07:43:37.677Z,10.37
2022-11-22T07:46:08.146Z,10.57
2022-11-22T07:48:36.454Z,9.23
2022-11-22T07:51:06.418Z,10.97
2022-11-22T07:53:35.525Z,9.17
2022-11-22T07:56:04.314Z,10.60
2022-11-22T07:58:34.478Z,9.53
2022-11-22T08:01:07.449Z,9.20
2022-11-22T08:03:36.115Z,10.13
2022-11-22T08:06:06.205Z,11.07
2022-11-22T08:08:35.072Z,8.57
2022-11-22T08:11:03.633Z,8.00
2022-11-22T08:13:33.987Z,12.23
2022-11-22T08:16:07.254Z,8.57
2022-11-22T08:18:35.499Z,10.60
2022-11-22T08:21:05.205Z,9.97
2022-11-22T08:23:33.358Z,10.13
2022-11-22T08:26:01.331Z,14.10
2022-11-22T08:28:29.271Z,11.50
2022-11-22T08:31:04.540Z,8.77
2022-11-22T08:33:32.660Z,9.13
2022-11-22T08:36:00.724Z,10.23
2022-11-22T08:38:28.880Z,13.83
2022-11-22T08:40:56.994Z,14.10
2022-11-22T08:43:25.464Z,12.73
2022-11-22T08:45:56.997Z,7.43
2022-11-22T08:48:27.149Z,12.13
2022-11-22T08:50:56.839Z,10.80
2022-11-22T08:53:26.452Z,6.57
2022-11-22T08:55:55.756Z,10.90
2022-11-22T08:58:24.290Z,7.60
2022-11-22T09:00:52.384Z,10.27
2022-11-22T09:03:20.470Z,11.10
2022-11-22T09:08:43.604Z,10.27
2022-11-22T09:11:14.656Z,10.77
2022-11-22T09:13:43.487Z,10.87
2022-11-22T09:16:13.838Z,6.90
2022-11-22T09:18:42.067Z,5.37
2022-11-22T09:21:15.798Z,8.47
2022-11-22T09:23:44.658Z,9.43
2022-11-22T09:26:15.037Z,6.80
2022-11-22T09:28:43.874Z,10.27
2022-11-22T09:31:13.873Z,9.07
2022-11-22T09:33:45.109Z,8.47
2022-11-22T09:36:16.145Z,8.70
2022-11-22T09:38:44.622Z,9.70
2022-11-22T09:41:41.440Z,8.63
2022-11-22T09:44:17.847Z,14.03
2022-11-22T09:46:53.121Z,10.00
2022-11-22T09:49:29.889Z,10.50
2022-11-22T09:52:07.990Z,7.47
2022-11-22T09:54:42.596Z,7.93
2022-11-22T09:57:16.704Z,9.40
2022-11-22T09:59:48.151Z,6.83
2022-11-22T10:02:22.522Z,7.70
2022-11-22T10:04:57.392Z,11.33
2022-11-22T10:07:32.220Z,8.10
2022-11-22T10:10:06.168Z,5.10
2022-11-22T10:12:42.345Z,4.77
2022-11-22T10:15:21.022Z,6.27
2022-11-22T10:17:54.556Z,8.97
2022-11-22T10:20:24.272Z,8.57
2022-11-22T10:22:54.144Z,3.87
2022-11-22T10:25:23.655Z,5.53
2022-11-22T10:28:00.384Z,6.30
2022-11-22T10:30:35.911Z,7.20
2022-11-22T10:33:22.756Z,7.90
2022-11-22T10:36:08.823Z,5.50
2022-11-22T10:38:55.678Z,8.37
2022-11-22T10:41:38.553Z,8.80
2022-11-22T10:44:20.281Z,4.30
2022-11-22T10:46:57.613Z,6.07
2022-11-22T10:49:36.549Z,5.17
2022-11-22T10:52:16.053Z,8.53
2022-11-22T10:54:54.928Z,7.10
2022-11-22T10:57:34.408Z,5.63
2022-11-22T11:00:16.492Z,3.67
2022-11-22T11:03:18.119Z,4.60
2022-11-22T11:06:20.998Z,5.27
2022-11-22T11:09:23.397Z,7.97
2022-11-22T11:11:34.145Z,6.37
2022-11-22T11:14:07.416Z,4.53
2022-11-22T11:16:39.160Z,3.43
2022-11-22T11:19:18.160Z,7.27
2022-11-22T11:21:46.619Z,6.83
2022-11-22T11:24:16.462Z,5.37
2022-11-22T11:26:55.575Z,9.13
2022-11-22T11:29:40.659Z,3.07
2022-11-22T11:32:15.535Z,6.50
2022-11-22T11:34:52.390Z,3.17
2022-11-22T11:37:26.304Z,2.77
2022-11-22T11:39:54.503Z,4.20
2022-11-22T11:42:29.384Z,1.53
2022-11-22T11:45:22.411Z,6.33
2022-11-22T11:47:50.661Z,6.87
2022-11-22T11:50:24.262Z,4.27
2022-11-22T11:52:55.237Z,3.43
2022-11-22T11:55:23.964Z,3.57
2022-11-22T11:57:54.865Z,3.07
2022-11-22T12:00:27.864Z,2.30
2022-11-22T12:03:02.377Z,4.37
2022-11-22T12:05:32.347Z,3.03
2022-11-22T12:08:02.731Z,7.13
2022-11-22T12:10:35.708Z,4.30
2022-11-22T12:13:19.592Z,6.53
2022-11-22T12:15:59.629Z,4.67
2022-11-22T12:18:36.265Z,2.27
2022-11-22T12:21:14.190Z,2.80
2022-11-22T12:24:19.513Z,4.47
2022-11-22T12:26:45.549Z,4.53
2022-11-22T12:29:16.865Z,3.23
2022-11-22T12:31:50.708Z,1.17
2022-11-22T12:34:25.793Z,2.83
2022-11-22T12:37:01.314Z,2.13
2022-11-22T12:39:30.716Z,2.03
2022-11-22T12:42:01.827Z,1.57
2022-11-22T12:44:38.139Z,3.30
2022-11-22T12:47:13.328Z,3.10
2022-11-22T12:49:44.656Z,3.67
2022-11-22T12:52:20.891Z,6.20
2022-11-22T12:54:58.889Z,2.93
2022-11-22T12:57:35.946Z,4.83
2022-11-22T13:00:14.374Z,3.93
2022-11-22T13:02:48.331Z,2.67
2022-11-22T13:05:20.694Z,5.73
2022-11-22T13:07:57.649Z,7.47
2022-11-22T13:10:36.220Z,17.47
2022-11-22T13:13:08.057Z,6.23
2022-11-22T13:15:40.760Z,1.63
2022-11-22T13:18:12.684Z,2.97
2022-11-22T13:20:51.675Z,3.43
2022-11-22T13:23:40.203Z,3.07
2022-11-22T13:26:15.246Z,9.50
2022-11-22T13:28:58.230Z,11.37
2022-11-22T13:31:41.078Z,7.93
2022-11-22T13:34:26.482Z,3.67
2022-11-22T13:37:00.569Z,3.40
2022-11-22T13:39:30.760Z,1.50
2022-11-22T13:42:08.163Z,1.93
2022-11-22T13:44:50.038Z,4.00
2022-11-22T13:47:43.282Z,0.90
2022-11-22T13:50:55.052Z,3.63
2022-11-22T13:53:44.154Z,1.67
2022-11-22T13:56:49.374Z,2.20
2022-11-22T13:59:20.828Z,6.13
2022-11-22T14:02:05.549Z,3.77
2022-11-22T14:04:45.431Z,2.87
2022-11-22T14:07:34.297Z,1.90
2022-11-22T14:10:04.344Z,4.53
2022-11-22T14:12:48.526Z,2.87
2022-11-22T14:15:26.178Z,4.20
2022-11-22T14:18:11.084Z,6.30
2022-11-22T14:20:49.597Z,4.67
2022-11-22T14:23:30.436Z,2.33
2022-11-22T14:26:10.932Z,1.30
2022-11-22T14:29:12.445Z,1.70
2022-11-22T14:31:47.619Z,3.73
2022-11-22T14:34:23.372Z,3.33
2022-11-22T14:37:36.247Z,3.80
2022-11-22T14:40:17.621Z,3.83
2022-11-22T14:42:54.209Z,3.73
2022-11-22T14:45:30.160Z,2.77
2022-11-22T14:48:06.007Z,5.23
2022-11-22T14:50:42.933Z,6.80
2022-11-22T14:53:31.664Z,1.80
2022-11-22T14:56:25.055Z,1.07
2022-11-22T14:59:07.913Z,1.50
2022-11-22T15:02:07.579Z,6.30
2022-11-22T15:09:10.056Z,3.53
2022-11-22T15:09:25.591Z,5.23
2022-11-22T15:11:13.783Z,1.47
2022-11-22T15:13:57.473Z,2.40
2022-11-22T15:57:27.383Z,0.93
2022-11-22T15:59:56.834Z,2.93
2022-11-22T16:02:27.851Z,0.53
2022-11-22T16:06:06.353Z,1.10
2022-11-22T16:07:50.244Z,1.23
2022-11-22T16:10:22.115Z,1.87
2022-11-22T16:12:50.768Z,1.10
2022-11-22T16:15:30.581Z,2.00
2022-11-22T16:18:09.389Z,2.90
2022-11-22T16:20:40.429Z,0.90
2022-11-22T16:23:25.342Z,1.57
2022-11-22T16:26:00.143Z,1.93
2022-11-22T16:28:38.693Z,4.80
2022-11-22T16:31:20.962Z,3.53
2022-11-22T16:33:49.280Z,1.30
2022-11-22T16:36:20.597Z,2.87
2022-11-22T16:38:48.997Z,2.33
2022-11-22T16:41:21.007Z,2.60
2022-11-22T16:43:51.243Z,1.17
2022-11-22T16:46:20.482Z,2.00
2022-11-22T16:48:49.513Z,1.17
2022-11-22T16:51:23.958Z,1.90
2022-11-22T16:53:54.434Z,1.00
2022-11-22T16:56:24.464Z,2.27
2022-11-22T16:58:54.107Z,1.70
2022-11-22T17:01:24.199Z,1.27
2022-11-22T17:03:54.848Z,2.37
2022-11-22T17:06:27.294Z,1.33
2022-11-22T17:08:58.550Z,3.60
2022-11-22T17:11:28.685Z,2.23
2022-11-22T17:13:57.256Z,1.37
2022-11-22T17:16:25.891Z,1.43
2022-11-22T17:18:56.278Z,1.20
2022-11-22T17:21:32.907Z,1.37
2022-11-22T17:24:07.573Z,1.90
2022-11-22T17:26:36.051Z,2.13
2022-11-22T17:29:04.432Z,1.63
2022-11-22T17:31:32.939Z,1.03
2022-11-22T17:34:01.155Z,2.87
2022-11-22T17:36:32.691Z,1.80
2022-11-22T17:39:02.687Z,1.83
2022-11-22T17:41:31.536Z,1.67
2022-11-22T17:44:00.010Z,1.17
2022-11-22T17:46:30.399Z,1.37
2022-11-22T17:49:00.726Z,1.20
2022-11-22T17:51:31.497Z,1.40
2022-11-22T17:54:00.244Z,1.53
2022-11-22T17:56:30.611Z,2.33
2022-11-22T17:58:58.811Z,2.80
2022-11-22T18:01:27.211Z,2.73
2022-11-22T18:03:55.505Z,2.20
2022-11-22T18:06:27.428Z,3.87
2022-11-22T18:08:57.356Z,3.20
2022-11-22T18:11:25.360Z,3.63
2022-11-22T18:13:53.466Z,2.47
2022-11-22T18:16:27.953Z,1.23
2022-11-22T18:18:58.088Z,3.43
2022-11-22T18:21:26.994Z,1.13
2022-11-22T18:23:58.114Z,2.73
2022-11-22T18:26:42.322Z,2.63
2022-11-22T18:29:41.619Z,1.13
2022-11-22T18:32:01.069Z,4.07
2022-11-22T18:34:29.590Z,1.73
2022-11-22T18:37:01.985Z,1.40
2022-11-22T18:39:34.793Z,2.90
2022-11-22T18:42:03.480Z,1.30
2022-11-22T18:44:31.473Z,3.03
2022-11-22T18:47:00.038Z,1.60
2022-11-22T18:49:28.120Z,1.73
2022-11-22T18:51:56.733Z,1.83
2022-11-22T18:54:24.956Z,1.20
2022-11-22T18:56:54.421Z,1.40
2022-11-22T18:59:22.493Z,2.00
2022-11-22T19:01:50.566Z,3.47
2022-11-22T19:04:18.967Z,2.00
2022-11-22T19:06:47.191Z,2.97
2022-11-22T19:09:15.501Z,2.57
2022-11-22T19:11:43.635Z,2.70
2022-11-22T19:14:13.325Z,2.17
2022-11-22T19:16:42.157Z,2.30
2022-11-22T19:19:12.989Z,2.30
2022-11-22T19:21:41.311Z,1.73
2022-11-22T19:24:09.824Z,3.10
2022-11-22T19:26:38.154Z,2.23
2022-11-22T19:29:06.357Z,1.63
2022-11-22T19:31:36.879Z,1.87
2022-11-22T19:34:05.189Z,2.30
2022-11-22T19:36:34.544Z,1.80
2022-11-22T19:39:04.025Z,1.70
2022-11-22T19:41:32.799Z,2.07
2022-11-22T19:44:01.652Z,1.70
2022-11-22T19:46:30.504Z,2.17
2022-11-22T19:49:01.282Z,3.50
2022-11-22T19:51:34.605Z,1.70
2022-11-22T19:54:04.942Z,2.43
2022-11-22T19:56:38.697Z,4.03
2022-11-22T19:59:09.894Z,4.07
2022-11-22T20:01:39.788Z,2.97
2022-11-22T20:04:10.317Z,2.93
2022-11-22T20:06:38.512Z,3.13
2022-11-22T20:09:09.387Z,5.47
2022-11-22T20:11:38.543Z,5.87
2022-11-22T20:14:07.543Z,4.53
2022-11-22T20:16:35.824Z,4.20
2022-11-22T20:19:06.976Z,3.43
2022-11-22T20:21:38.039Z,3.70
2022-11-22T20:24:07.881Z,3.27
2022-11-22T20:26:36.688Z,3.80
2022-11-22T20:29:06.847Z,5.80
2022-11-22T20:31:37.324Z,3.83
2022-11-22T20:34:05.907Z,3.30
2022-11-22T20:36:36.392Z,4.13
2022-11-22T20:39:10.312Z,3.13
2022-11-22T20:41:40.001Z,5.47
2022-11-22T20:44:09.050Z,2.60
2022-11-22T20:46:38.549Z,3.17
2022-11-22T20:49:06.556Z,2.40
2022-11-22T20:51:39.593Z,2.40
2022-11-22T20:54:08.953Z,4.60
2022-11-22T20:56:37.561Z,4.40
2022-11-22T20:59:05.970Z,3.97
2022-11-22T21:01:34.380Z,3.43
2022-11-22T21:04:03.125Z,2.83
2022-11-22T21:06:33.073Z,3.43
2022-11-22T21:09:02.644Z,3.53
2022-11-22T21:11:32.232Z,5.40
2022-11-22T21:14:00.324Z,5.27
2022-11-22T21:16:29.908Z,2.70
2022-11-22T21:19:01.145Z,4.27
2022-11-22T21:21:30.835Z,2.90
2022-11-22T21:24:00.879Z,2.77
2022-11-22T21:26:31.231Z,7.30
2022-11-22T21:29:00.663Z,3.40
2022-11-22T21:31:29.212Z,4.40
2022-11-22T21:33:57.797Z,3.97
2022-11-22T21:36:25.923Z,5.33
2022-11-22T21:38:54.083Z,4.20
2022-11-22T21:41:40.176Z,2.60
2022-11-22T21:44:11.071Z,4.30
2022-11-22T21:46:39.901Z,6.43
2022-11-22T21:49:08.396Z,6.00
2022-11-22T21:51:36.671Z,5.57
2022-11-22T21:54:07.442Z,5.17
2022-11-22T21:56:35.842Z,5.73
2022-11-22T21:59:03.965Z,6.90
2022-11-22T22:01:33.926Z,6.73
2022-11-22T22:04:02.336Z,4.20
2022-11-22T22:06:30.463Z,6.53
2022-11-22T22:08:58.552Z,5.33
2022-11-22T22:11:26.565Z,4.50
2022-11-22T22:13:55.228Z,4.03
2022-11-22T22:16:25.877Z,6.40
2022-11-22T22:18:55.244Z,4.87
2022-11-22T22:21:23.409Z,3.97
2022-11-22T22:23:53.459Z,5.23
2022-11-22T22:26:21.791Z,4.23
2022-11-22T22:28:49.880Z,5.50
2022-11-22T22:31:22.245Z,6.20
2022-11-22T22:33:52.415Z,4.60
2022-11-22T22:36:22.986Z,4.73
2022-11-22T22:38:51.140Z,3.33
2022-11-22T22:41:19.684Z,5.33
2022-11-22T22:43:49.872Z,7.00
2022-11-22T22:46:20.365Z,5.63
2022-11-22T22:48:49.465Z,7.50
2022-11-22T22:51:19.439Z,4.53
2022-11-22T22:53:49.331Z,4.23
2022-11-22T22:56:19.156Z,4.73
2022-11-22T22:58:47.620Z,7.10
2022-11-22T23:01:17.738Z,4.87
2022-11-22T23:04:04.691Z,4.70
2022-11-22T23:06:34.320Z,5.90
2022-11-22T23:09:05.060Z,6.00
2022-11-22T23:11:51.574Z,5.50
2022-11-22T23:14:21.324Z,3.50
2022-11-22T23:16:53.226Z,6.73
2022-11-22T23:19:24.975Z,5.13
2022-11-22T23:21:53.227Z,7.77
2022-11-22T23:24:22.825Z,5.23
2022-11-22T23:26:50.924Z,6.50
2022-11-22T23:29:19.216Z,3.70
2022-11-22T23:31:47.297Z,6.93
2022-11-22T23:34:15.569Z,3.97
2022-11-22T23:36:46.771Z,4.13
2022-11-22T23:39:16.603Z,5.47
2022-11-22T23:41:46.733Z,3.83
2022-11-22T23:44:14.836Z,6.23
2022-11-22T23:46:42.931Z,4.80
2022-11-22T23:49:13.142Z,6.27
2022-11-22T23:51:41.700Z,4.37
2022-11-22T23:54:11.438Z,4.47
2022-11-22T23:56:39.719Z,3.13
2022-11-22T23:59:10.462Z,5.17
